sensor_id;sensor_type;location;lat;lon;timestamp;pressure;altitude;pressure_sealevel;temperature;humidity
10310;BME280;5200;43.236;27.986;2023-03-16T00:02:16;99035.06;;;6.55;100.00
10310;BME280;5200;43.236;27.986;2023-03-16T00:04:43;99054.06;;;6.67;100.00
10310;BME280;5200;43.236;27.986;2023-03-16T00:07:12;99045.22;;;6.68;100.00
10310;BME280;5200;43.236;27.986;2023-03-16T00:09:41;99035.34;;;6.71;100.00
10310;BME280;5200;43.236;27.986;2023-03-16T00:12:11;99031.75;;;6.63;100.00
10310;BME280;5200;43.236;27.986;2023-03-16T00:14:40;99026.81;;;6.69;100.00
10310;BME280;5200;43.236;27.986;2023-03-16T00:17:08;99033.31;;;6.75;100.00
10310;BME280;5200;43.236;27.986;2023-03-16T00:19:44;99040.69;;;6.80;100.00
10310;BME280;5200;43.236;27.986;2023-03-16T00:22:13;99031.75;;;6.72;100.00
10310;BME280;5200;43.236;27.986;2023-03-16T00:24:42;99039.75;;;6.81;100.00
10310;BME280;5200;43.236;27.986;2023-03-16T00:27:10;99049.69;;;6.87;100.00
10310;BME280;5200;43.236;27.986;2023-03-16T00:29:40;99056.84;;;6.85;100.00
10310;BME280;5200;43.236;27.986;2023-03-16T00:32:12;99040.56;;;6.81;100.00
10310;BME280;5200;43.236;27.986;2023-03-16T00:34:39;99044.44;;;6.87;100.00
10310;BME280;5200;43.236;27.986;2023-03-16T00:37:06;99047.88;;;6.87;100.00
10310;BME280;5200;43.236;27.986;2023-03-16T00:39:33;99043.59;;;6.86;100.00
10310;BME280;5200;43.236;27.986;2023-03-16T00:42:01;99049.25;;;6.91;100.00
10310;BME280;5200;43.236;27.986;2023-03-16T00:44:28;99052.69;;;6.92;100.00
10310;BME280;5200;43.236;27.986;2023-03-16T00:46:56;99051.44;;;6.96;100.00
10310;BME280;5200;43.236;27.986;2023-03-16T00:49:22;99041.97;;;6.95;100.00
10310;BME280;5200;43.236;27.986;2023-03-16T00:51:49;99020.34;;;6.83;100.00
10310;BME280;5200;43.236;27.986;2023-03-16T00:54:16;99048.16;;;6.94;100.00
10310;BME280;5200;43.236;27.986;2023-03-16T00:56:44;99040.56;;;6.91;100.00
10310;BME280;5200;43.236;27.986;2023-03-16T00:59:12;99034.81;;;6.87;100.00
10310;BME280;5200;43.236;27.986;2023-03-16T01:01:39;99040.56;;;6.91;100.00
10310;BME280;5200;43.236;27.986;2023-03-16T01:04:06;99037.56;;;6.86;100.00
10310;BME280;5200;43.236;27.986;2023-03-16T01:06:33;99045.41;;;6.86;100.00
10310;BME280;5200;43.236;27.986;2023-03-16T01:09:00;99036.59;;;6.87;100.00
10310;BME280;5200;43.236;27.986;2023-03-16T01:11:30;99016.91;;;6.73;100.00
10310;BME280;5200;43.236;27.986;2023-03-16T01:13:59;99044.97;;;6.90;100.00
10310;BME280;5200;43.236;27.986;2023-03-16T01:16:27;99048.41;;;6.91;100.00
10310;BME280;5200;43.236;27.986;2023-03-16T01:18:54;99047.19;;;6.95;100.00
10310;BME280;5200;43.236;27.986;2023-03-16T01:21:22;99047.19;;;6.95;100.00
10310;BME280;5200;43.236;27.986;2023-03-16T01:23:49;99045.25;;;6.97;100.00
10310;BME280;5200;43.236;27.986;2023-03-16T01:26:17;99042.78;;;6.95;100.00
10310;BME280;5200;43.236;27.986;2023-03-16T01:28:45;99050.50;;;6.97;100.00
10310;BME280;5200;43.236;27.986;2023-03-16T01:31:13;99048.00;;;6.95;100.00
10310;BME280;5200;43.236;27.986;2023-03-16T01:33:42;99046.66;;;7.01;100.00
10310;BME280;5200;43.236;27.986;2023-03-16T01:36:11;99041.66;;;6.98;100.00
10310;BME280;5200;43.236;27.986;2023-03-16T01:38:39;99057.38;;;6.98;100.00
10310;BME280;5200;43.236;27.986;2023-03-16T01:41:07;99068.69;;;6.98;100.00
10310;BME280;5200;43.236;27.986;2023-03-16T01:43:36;99062.59;;;6.98;100.00
10310;BME280;5200;43.236;27.986;2023-03-16T01:46:17;99064.78;;;7.03;100.00
10310;BME280;5200;43.236;27.986;2023-03-16T01:48:51;99058.75;;;7.02;100.00
10310;BME280;5200;43.236;27.986;2023-03-16T01:51:23;99070.19;;;7.01;100.00
10310;BME280;5200;43.236;27.986;2023-03-16T01:53:54;99069.22;;;7.02;100.00
10310;BME280;5200;43.236;27.986;2023-03-16T01:56:24;99066.47;;;7.04;100.00
10310;BME280;5200;43.236;27.986;2023-03-16T01:58:54;99050.09;;;6.92;100.00
10310;BME280;5200;43.236;27.986;2023-03-16T02:01:24;99066.88;;;6.99;100.00
10310;BME280;5200;43.236;27.986;2023-03-16T02:03:54;99078.28;;;6.98;100.00
10310;BME280;5200;43.236;27.986;2023-03-16T02:06:23;99073.91;;;6.98;100.00
10310;BME280;5200;43.236;27.986;2023-03-16T02:08:50;99079.53;;;6.94;100.00
10310;BME280;5200;43.236;27.986;2023-03-16T02:11:20;99079.78;;;6.91;100.00
10310;BME280;5200;43.236;27.986;2023-03-16T02:13:47;99086.94;;;6.89;100.00
10310;BME280;5200;43.236;27.986;2023-03-16T02:16:17;99079.66;;;6.83;100.00
10310;BME280;5200;43.236;27.986;2023-03-16T02:18:45;99082.41;;;6.91;100.00
10310;BME280;5200;43.236;27.986;2023-03-16T02:21:18;99080.78;;;6.90;100.00
10310;BME280;5200;43.236;27.986;2023-03-16T02:23:50;99093.28;;;6.96;100.00
10310;BME280;5200;43.236;27.986;2023-03-16T02:26:23;99092.88;;;6.91;100.00
10310;BME280;5200;43.236;27.986;2023-03-16T02:29:04;99108.31;;;6.94;100.00
10310;BME280;5200;43.236;27.986;2023-03-16T02:31:35;99112.72;;;7.03;100.00
10310;BME280;5200;43.236;27.986;2023-03-16T02:34:03;99112.44;;;7.06;100.00
10310;BME280;5200;43.236;27.986;2023-03-16T02:36:31;99107.50;;;7.03;100.00
10310;BME280;5200;43.236;27.986;2023-03-16T02:38:58;99105.69;;;7.04;100.00
10310;BME280;5200;43.236;27.986;2023-03-16T02:41:25;99109.25;;;7.12;100.00
10310;BME280;5200;43.236;27.986;2023-03-16T02:43:54;99106.66;;;7.12;100.00
10310;BME280;5200;43.236;27.986;2023-03-16T02:46:26;99114.94;;;7.17;100.00
10310;BME280;5200;43.236;27.986;2023-03-16T02:48:59;99105.41;;;7.16;100.00
10310;BME280;5200;43.236;27.986;2023-03-16T02:51:28;99112.97;;;7.19;100.00
10310;BME280;5200;43.236;27.986;2023-03-16T02:53:56;99126.50;;;7.25;100.00
10310;BME280;5200;43.236;27.986;2023-03-16T02:56:23;99112.72;;;7.23;100.00
10310;BME280;5200;43.236;27.986;2023-03-16T02:58:50;99114.78;;;7.29;100.00
10310;BME280;5200;43.236;27.986;2023-03-16T03:01:17;99106.91;;;7.29;100.00
10310;BME280;5200;43.236;27.986;2023-03-16T03:03:43;99107.19;;;7.26;100.00
10310;BME280;5200;43.236;27.986;2023-03-16T03:06:12;99109.81;;;7.26;100.00
10310;BME280;5200;43.236;27.986;2023-03-16T03:08:38;99111.50;;;7.27;100.00
10310;BME280;5200;43.236;27.986;2023-03-16T03:11:05;99122.91;;;7.26;100.00
10310;BME280;5200;43.236;27.986;2023-03-16T03:13:32;99126.63;;;7.23;100.00
10310;BME280;5200;43.236;27.986;2023-03-16T03:15:59;99122.38;;;7.22;100.00
10310;BME280;5200;43.236;27.986;2023-03-16T03:18:26;99118.22;;;7.19;100.00
10310;BME280;5200;43.236;27.986;2023-03-16T03:20:53;99130.34;;;7.30;100.00
10310;BME280;5200;43.236;27.986;2023-03-16T03:23:21;99136.13;;;7.34;100.00
10310;BME280;5200;43.236;27.986;2023-03-16T03:25:48;99136.41;;;7.31;100.00
10310;BME280;5200;43.236;27.986;2023-03-16T03:28:15;99137.22;;;7.31;100.00
10310;BME280;5200;43.236;27.986;2023-03-16T03:30:41;99143.28;;;7.32;100.00
10310;BME280;5200;43.236;27.986;2023-03-16T03:33:08;99140.69;;;7.32;100.00
10310;BME280;5200;43.236;27.986;2023-03-16T03:35:35;99139.97;;;7.30;100.00
10310;BME280;5200;43.236;27.986;2023-03-16T03:38:02;99144.41;;;7.29;100.00
10310;BME280;5200;43.236;27.986;2023-03-16T03:40:30;99142.19;;;7.25;100.00
10310;BME280;5200;43.236;27.986;2023-03-16T03:42:57;99151.00;;;7.24;100.00
10310;BME280;5200;43.236;27.986;2023-03-16T03:45:24;99142.84;;;7.17;100.00
10310;BME280;5200;43.236;27.986;2023-03-16T03:47:51;99151.00;;;7.24;100.00
10310;BME280;5200;43.236;27.986;2023-03-16T03:50:19;99147.97;;;7.18;100.00
10310;BME280;5200;43.236;27.986;2023-03-16T03:52:47;99156.09;;;7.15;100.00
10310;BME280;5200;43.236;27.986;2023-03-16T03:55:14;99162.28;;;7.14;100.00
10310;BME280;5200;43.236;27.986;2023-03-16T03:57:42;99151.53;;;7.08;100.00
10310;BME280;5200;43.236;27.986;2023-03-16T04:00:10;99166.69;;;7.14;100.00
10310;BME280;5200;43.236;27.986;2023-03-16T04:02:38;99164.47;;;7.09;100.00
10310;BME280;5200;43.236;27.986;2023-03-16T04:05:06;99174.13;;;7.09;100.00
10310;BME280;5200;43.236;27.986;2023-03-16T04:07:32;99165.44;;;7.08;100.00
10310;BME280;5200;43.236;27.986;2023-03-16T04:09:59;99180.44;;;7.06;100.00
10310;BME280;5200;43.236;27.986;2023-03-16T04:12:26;99165.56;;;6.87;100.00
10310;BME280;5200;43.236;27.986;2023-03-16T04:14:54;99178.53;;;7.08;100.00
10310;BME280;5200;43.236;27.986;2023-03-16T04:17:21;99181.41;;;7.05;100.00
10310;BME280;5200;43.236;27.986;2023-03-16T04:19:48;99181.28;;;7.07;100.00
10310;BME280;5200;43.236;27.986;2023-03-16T04:22:16;99182.91;;;7.08;100.00
10310;BME280;5200;43.236;27.986;2023-03-16T04:24:43;99185.53;;;7.08;100.00
10310;BME280;5200;43.236;27.986;2023-03-16T04:27:10;99191.44;;;7.10;100.00
10310;BME280;5200;43.236;27.986;2023-03-16T04:29:37;99205.38;;;7.10;100.00
10310;BME280;5200;43.236;27.986;2023-03-16T04:32:06;99204.41;;;7.11;100.00
10310;BME280;5200;43.236;27.986;2023-03-16T04:34:33;99200.56;;;7.06;100.00
10310;BME280;5200;43.236;27.986;2023-03-16T04:37:00;99213.63;;;7.06;100.00
10310;BME280;5200;43.236;27.986;2023-03-16T04:39:27;99204.41;;;7.02;100.00
10310;BME280;5200;43.236;27.986;2023-03-16T04:41:54;99214.06;;;7.11;100.00
10310;BME280;5200;43.236;27.986;2023-03-16T04:44:21;99213.22;;;7.10;100.00
10310;BME280;5200;43.236;27.986;2023-03-16T04:46:50;99214.06;;;7.11;100.00
10310;BME280;5200;43.236;27.986;2023-03-16T04:49:18;99217.22;;;7.14;100.00
10310;BME280;5200;43.236;27.986;2023-03-16T04:51:45;99203.28;;;7.04;100.00
10310;BME280;5200;43.236;27.986;2023-03-16T04:54:11;99222.84;;;7.10;100.00
10310;BME280;5200;43.236;27.986;2023-03-16T04:56:38;99218.59;;;7.09;100.00
10310;BME280;5200;43.236;27.986;2023-03-16T04:59:05;99216.78;;;7.09;100.00
10310;BME280;5200;43.236;27.986;2023-03-16T05:01:32;99226.97;;;7.12;100.00
10310;BME280;5200;43.236;27.986;2023-03-16T05:03:59;99226.97;;;7.12;100.00
10310;BME280;5200;43.236;27.986;2023-03-16T05:06:28;99226.97;;;7.12;100.00
10310;BME280;5200;43.236;27.986;2023-03-16T05:08:58;99214.84;;;7.02;100.00
10310;BME280;5200;43.236;27.986;2023-03-16T05:11:24;99230.28;;;7.14;100.00
10310;BME280;5200;43.236;27.986;2023-03-16T05:13:51;99229.88;;;7.09;100.00
10310;BME280;5200;43.236;27.986;2023-03-16T05:16:18;99231.13;;;7.15;100.00
10310;BME280;5200;43.236;27.986;2023-03-16T05:18:45;99241.59;;;7.15;100.00
10310;BME280;5200;43.236;27.986;2023-03-16T05:21:11;99238.84;;;7.16;100.00
10310;BME280;5200;43.236;27.986;2023-03-16T05:23:40;99239.81;;;7.15;100.00
10310;BME280;5200;43.236;27.986;2023-03-16T05:26:06;99239.66;;;7.17;100.00
10310;BME280;5200;43.236;27.986;2023-03-16T05:28:33;99256.63;;;7.23;100.00
10310;BME280;5200;43.236;27.986;2023-03-16T05:31:00;99258.00;;;7.27;100.00
10310;BME280;5200;43.236;27.986;2023-03-16T05:33:28;99254.69;;;7.25;100.00
10310;BME280;5200;43.236;27.986;2023-03-16T05:35:54;99253.72;;;7.26;100.00
10310;BME280;5200;43.236;27.986;2023-03-16T05:38:22;99263.91;;;7.29;100.00
10310;BME280;5200;43.236;27.986;2023-03-16T05:40:51;99266.41;;;7.30;100.00
10310;BME280;5200;43.236;27.986;2023-03-16T05:43:19;99262.16;;;7.29;100.00
10310;BME280;5200;43.236;27.986;2023-03-16T05:45:46;99263.66;;;7.32;100.00
10310;BME280;5200;43.236;27.986;2023-03-16T05:48:13;99266.97;;;7.34;100.00
10310;BME280;5200;43.236;27.986;2023-03-16T05:50:40;99255.66;;;7.33;100.00
10310;BME280;5200;43.236;27.986;2023-03-16T05:53:07;99245.75;;;7.27;100.00
10310;BME280;5200;43.236;27.986;2023-03-16T05:55:34;99264.09;;;7.37;100.00
10310;BME280;5200;43.236;27.986;2023-03-16T05:58:02;99264.78;;;7.39;100.00
10310;BME280;5200;43.236;27.986;2023-03-16T06:00:29;99271.13;;;7.36;100.00
10310;BME280;5200;43.236;27.986;2023-03-16T06:02:57;99267.53;;;7.37;100.00
10310;BME280;5200;43.236;27.986;2023-03-16T06:05:24;99268.09;;;7.41;100.00
10310;BME280;5200;43.236;27.986;2023-03-16T06:07:53;99262.81;;;7.31;100.00
10310;BME280;5200;43.236;27.986;2023-03-16T06:10:19;99278.81;;;7.38;100.00
10310;BME280;5200;43.236;27.986;2023-03-16T06:12:46;99284.75;;;7.40;100.00
10310;BME280;5200;43.236;27.986;2023-03-16T06:15:14;99285.97;;;7.36;100.00
10310;BME280;5200;43.236;27.986;2023-03-16T06:17:41;99269.44;;;7.26;100.00
10310;BME280;5200;43.236;27.986;2023-03-16T06:20:10;99285.53;;;7.31;100.00
10310;BME280;5200;43.236;27.986;2023-03-16T06:22:38;99301.94;;;7.33;100.00
10310;BME280;5200;43.236;27.986;2023-03-16T06:25:06;99295.03;;;7.22;100.00
10310;BME280;5200;43.236;27.986;2023-03-16T06:27:34;99294.88;;;7.24;100.00
10310;BME280;5200;43.236;27.986;2023-03-16T06:30:01;99305.22;;;7.25;100.00
10310;BME280;5200;43.236;27.986;2023-03-16T06:32:29;99312.66;;;7.20;100.00
10310;BME280;5200;43.236;27.986;2023-03-16T06:34:56;99308.78;;;7.14;100.00
10310;BME280;5200;43.236;27.986;2023-03-16T06:37:26;99313.75;;;7.17;100.00
10310;BME280;5200;43.236;27.986;2023-03-16T06:39:53;99307.66;;;7.07;100.00
10310;BME280;5200;43.236;27.986;2023-03-16T06:42:20;99318.09;;;7.07;100.00
10310;BME280;5200;43.236;27.986;2023-03-16T06:44:48;99315.34;;;6.99;100.00
10310;BME280;5200;43.236;27.986;2023-03-16T06:47:15;99327.19;;;7.03;100.00
10310;BME280;5200;43.236;27.986;2023-03-16T06:49:43;99320.28;;;7.02;100.00
10310;BME280;5200;43.236;27.986;2023-03-16T06:52:11;99332.69;;;7.00;100.00
10310;BME280;5200;43.236;27.986;2023-03-16T06:54:39;99333.66;;;6.99;100.00
10310;BME280;5200;43.236;27.986;2023-03-16T06:57:06;99345.31;;;6.95;100.00
10310;BME280;5200;43.236;27.986;2023-03-16T06:59:33;99349.72;;;6.94;100.00
10310;BME280;5200;43.236;27.986;2023-03-16T07:02:00;99350.28;;;6.98;100.00
10310;BME280;5200;43.236;27.986;2023-03-16T07:04:27;99348.06;;;6.93;100.00
10310;BME280;5200;43.236;27.986;2023-03-16T07:06:55;99355.47;;;6.88;100.00
10310;BME280;5200;43.236;27.986;2023-03-16T07:09:22;99354.66;;;6.88;100.00
10310;BME280;5200;43.236;27.986;2023-03-16T07:11:49;99349.56;;;6.65;100.00
10310;BME280;5200;43.236;27.986;2023-03-16T07:14:17;99365.75;;;6.80;100.00
10310;BME280;5200;43.236;27.986;2023-03-16T07:16:45;99370.84;;;6.82;100.00
10310;BME280;5200;43.236;27.986;2023-03-16T07:19:12;99353.97;;;6.65;100.00
10310;BME280;5200;43.236;27.986;2023-03-16T07:21:39;99373.03;;;6.76;100.00
10310;BME280;5200;43.236;27.986;2023-03-16T07:24:08;99372.13;;;6.66;100.00
10310;BME280;5200;43.236;27.986;2023-03-16T07:26:35;99362.56;;;6.55;100.00
10310;BME280;5200;43.236;27.986;2023-03-16T07:29:02;99361.31;;;6.50;100.00
10310;BME280;5200;43.236;27.986;2023-03-16T07:31:31;99363.59;;;6.43;100.00
10310;BME280;5200;43.236;27.986;2023-03-16T07:33:58;99396.31;;;6.59;100.00
10310;BME280;5200;43.236;27.986;2023-03-16T07:36:25;99367.78;;;6.34;100.00
10310;BME280;5200;43.236;27.986;2023-03-16T07:38:52;99375.38;;;6.38;100.00
10310;BME280;5200;43.236;27.986;2023-03-16T07:41:20;99393.88;;;6.46;100.00
10310;BME280;5200;43.236;27.986;2023-03-16T07:43:47;99406.09;;;6.45;100.00
10310;BME280;5200;43.236;27.986;2023-03-16T07:46:14;99395.38;;;6.27;100.00
10310;BME280;5200;43.236;27.986;2023-03-16T07:48:42;99394.75;;;6.35;100.00
10310;BME280;5200;43.236;27.986;2023-03-16T07:51:09;99411.81;;;6.39;100.00
10310;BME280;5200;43.236;27.986;2023-03-16T07:53:36;99415.06;;;6.31;100.00
10310;BME280;5200;43.236;27.986;2023-03-16T07:56:04;99426.84;;;6.26;100.00
10310;BME280;5200;43.236;27.986;2023-03-16T07:58:32;99427.22;;;6.21;100.00
10310;BME280;5200;43.236;27.986;2023-03-16T08:00:59;99429.13;;;6.19;100.00
10310;BME280;5200;43.236;27.986;2023-03-16T08:03:27;99421.88;;;6.23;100.00
10310;BME280;5200;43.236;27.986;2023-03-16T08:05:54;99429.84;;;6.21;100.00
10310;BME280;5200;43.236;27.986;2023-03-16T08:08:22;99429.84;;;6.21;100.00
10310;BME280;5200;43.236;27.986;2023-03-16T08:10:49;99430.31;;;6.15;100.00
10310;BME280;5200;43.236;27.986;2023-03-16T08:13:17;99421.78;;;6.13;100.00
10310;BME280;5200;43.236;27.986;2023-03-16T08:15:49;99433.94;;;6.03;100.00
10310;BME280;5200;43.236;27.986;2023-03-16T08:18:23;99460.97;;;6.13;100.00
10310;BME280;5200;43.236;27.986;2023-03-16T08:20:50;99438.91;;;6.06;100.00
10310;BME280;5200;43.236;27.986;2023-03-16T08:23:17;99419.81;;;5.94;100.00
10310;BME280;5200;43.236;27.986;2023-03-16T08:25:44;99451.84;;;6.07;100.00
10310;BME280;5200;43.236;27.986;2023-03-16T08:28:13;99457.19;;;6.06;100.00
10310;BME280;5200;43.236;27.986;2023-03-16T08:30:44;99461.56;;;6.05;100.00
10310;BME280;5200;43.236;27.986;2023-03-16T08:33:12;99465.13;;;6.04;100.00
10310;BME280;5200;43.236;27.986;2023-03-16T08:35:40;99453.66;;;5.96;100.00
10310;BME280;5200;43.236;27.986;2023-03-16T08:38:09;99442.94;;;5.87;100.00
10310;BME280;5200;43.236;27.986;2023-03-16T08:40:36;99468.13;;;6.00;100.00
10310;BME280;5200;43.236;27.986;2023-03-16T08:43:05;99448.66;;;5.81;100.00
10310;BME280;5200;43.236;27.986;2023-03-16T08:45:31;99465.53;;;6.00;100.00
10310;BME280;5200;43.236;27.986;2023-03-16T08:47:59;99477.81;;;6.09;100.00
10310;BME280;5200;43.236;27.986;2023-03-16T08:50:27;99490.41;;;6.04;100.00
10310;BME280;5200;43.236;27.986;2023-03-16T08:52:54;99478.56;;;6.00;100.00
10310;BME280;5200;43.236;27.986;2023-03-16T08:55:21;99487.34;;;5.99;100.00
10310;BME280;5200;43.236;27.986;2023-03-16T08:57:48;99471.69;;;5.99;100.00
10310;BME280;5200;43.236;27.986;2023-03-16T09:00:16;99478.31;;;6.03;100.00
10310;BME280;5200;43.236;27.986;2023-03-16T09:02:45;99486.88;;;6.05;100.00
10310;BME280;5200;43.236;27.986;2023-03-16T09:05:13;99481.19;;;6.00;100.00
10310;BME280;5200;43.236;27.986;2023-03-16T09:07:43;99463.81;;;5.87;100.00
10310;BME280;5200;43.236;27.986;2023-03-16T09:10:11;99464.69;;;5.88;100.00
10310;BME280;5200;43.236;27.986;2023-03-16T09:12:41;99488.31;;;5.98;100.00
10310;BME280;5200;43.236;27.986;2023-03-16T09:15:09;99494.25;;;6.00;100.00
10310;BME280;5200;43.236;27.986;2023-03-16T09:17:36;99460.75;;;5.82;100.00
10310;BME280;5200;43.236;27.986;2023-03-16T09:20:05;99497.78;;;5.99;100.00
10310;BME280;5200;43.236;27.986;2023-03-16T09:22:34;99489.69;;;6.02;100.00
10310;BME280;5200;43.236;27.986;2023-03-16T09:25:03;99443.34;;;5.71;100.00
10310;BME280;5200;43.236;27.986;2023-03-16T09:27:31;99496.59;;;6.03;100.00
10310;BME280;5200;43.236;27.986;2023-03-16T09:29:58;99501.47;;;6.07;100.00
10310;BME280;5200;43.236;27.986;2023-03-16T09:32:27;99501.69;;;6.04;100.00
10310;BME280;5200;43.236;27.986;2023-03-16T09:34:54;99515.94;;;6.11;100.00
10310;BME280;5200;43.236;27.986;2023-03-16T09:37:22;99520.22;;;6.01;100.00
10310;BME280;5200;43.236;27.986;2023-03-16T09:39:48;99522.00;;;6.01;100.00
10310;BME280;5200;43.236;27.986;2023-03-16T09:42:23;99524.84;;;6.09;100.00
10310;BME280;5200;43.236;27.986;2023-03-16T09:45:01;99522.47;;;6.06;100.00
10310;BME280;5200;43.236;27.986;2023-03-16T09:47:32;99525.69;;;5.98;100.00
10310;BME280;5200;43.236;27.986;2023-03-16T09:50:04;99537.66;;;6.01;100.00
10310;BME280;5200;43.236;27.986;2023-03-16T09:52:39;99530.91;;;6.09;100.00
10310;BME280;5200;43.236;27.986;2023-03-16T09:55:20;99544.06;;;6.08;100.00
10310;BME280;5200;43.236;27.986;2023-03-16T09:57:52;99532.91;;;5.95;100.00
10310;BME280;5200;43.236;27.986;2023-03-16T10:00:21;99532.16;;;5.92;100.00
10310;BME280;5200;43.236;27.986;2023-03-16T10:03:01;99544.41;;;5.92;100.00
10310;BME280;5200;43.236;27.986;2023-03-16T10:05:30;99544.19;;;5.84;100.00
10310;BME280;5200;43.236;27.986;2023-03-16T10:08:07;99553.19;;;5.91;100.00
10310;BME280;5200;43.236;27.986;2023-03-16T10:11:02;99554.06;;;6.03;100.00
10310;BME280;5200;43.236;27.986;2023-03-16T10:13:38;99552.63;;;5.99;100.00
10310;BME280;5200;43.236;27.986;2023-03-16T10:16:10;99541.69;;;5.82;100.00
10310;BME280;5200;43.236;27.986;2023-03-16T10:18:41;99560.72;;;5.96;100.00
10310;BME280;5200;43.236;27.986;2023-03-16T10:21:13;99568.19;;;6.00;100.00
10310;BME280;5200;43.236;27.986;2023-03-16T10:23:42;99557.13;;;5.97;100.00
10310;BME280;5200;43.236;27.986;2023-03-16T10:26:13;99564.03;;;5.98;100.00
10310;BME280;5200;43.236;27.986;2023-03-16T10:28:42;99561.91;;;6.03;100.00
10310;BME280;5200;43.236;27.986;2023-03-16T10:31:11;99561.06;;;6.02;100.00
10310;BME280;5200;43.236;27.986;2023-03-16T10:33:38;99541.47;;;5.97;100.00
10310;BME280;5200;43.236;27.986;2023-03-16T10:36:13;99543.72;;;6.01;100.00
10310;BME280;5200;43.236;27.986;2023-03-16T10:38:42;99550.72;;;6.01;100.00
10310;BME280;5200;43.236;27.986;2023-03-16T10:41:27;99562.34;;;6.08;100.00
10310;BME280;5200;43.236;27.986;2023-03-16T10:43:57;99550.63;;;6.02;100.00
10310;BME280;5200;43.236;27.986;2023-03-16T10:46:36;99551.69;;;6.00;100.00
10310;BME280;5200;43.236;27.986;2023-03-16T10:49:03;99557.84;;;6.10;100.00
10310;BME280;5200;43.236;27.986;2023-03-16T10:51:32;99549.56;;;6.05;100.00
10310;BME280;5200;43.236;27.986;2023-03-16T10:54:07;99566.16;;;6.15;100.00
10310;BME280;5200;43.236;27.986;2023-03-16T10:56:36;99560.22;;;6.24;100.00
10310;BME280;5200;43.236;27.986;2023-03-16T10:59:14;99555.56;;;6.28;100.00
10310;BME280;5200;43.236;27.986;2023-03-16T11:01:44;99565.78;;;6.31;100.00
10310;BME280;5200;43.236;27.986;2023-03-16T11:04:14;99564.25;;;6.28;100.00
10310;BME280;5200;43.236;27.986;2023-03-16T11:06:54;99566.00;;;6.28;100.00
10310;BME280;5200;43.236;27.986;2023-03-16T11:09:23;99558.78;;;6.20;100.00
10310;BME280;5200;43.236;27.986;2023-03-16T11:11:53;99562.09;;;6.22;100.00
10310;BME280;5200;43.236;27.986;2023-03-16T11:14:25;99546.06;;;6.16;100.00
10310;BME280;5200;43.236;27.986;2023-03-16T11:16:59;99533.63;;;6.08;100.00
10310;BME280;5200;43.236;27.986;2023-03-16T11:19:29;99559.97;;;6.27;100.00
10310;BME280;5200;43.236;27.986;2023-03-16T11:22:01;99527.56;;;6.19;100.00
10310;BME280;5200;43.236;27.986;2023-03-16T11:24:36;99537.53;;;6.25;100.00
10310;BME280;5200;43.236;27.986;2023-03-16T11:27:13;99552.84;;;6.29;100.00
10310;BME280;5200;43.236;27.986;2023-03-16T11:29:55;99553.44;;;6.33;100.00
10310;BME280;5200;43.236;27.986;2023-03-16T11:32:28;99548.94;;;6.35;100.00
10310;BME280;5200;43.236;27.986;2023-03-16T11:34:56;99553.09;;;6.26;100.00
10310;BME280;5200;43.236;27.986;2023-03-16T11:37:33;99532.91;;;6.06;100.00
10310;BME280;5200;43.236;27.986;2023-03-16T11:40:23;99566.50;;;6.22;100.00
10310;BME280;5200;43.236;27.986;2023-03-16T11:43:00;99571.13;;;6.18;100.00
10310;BME280;5200;43.236;27.986;2023-03-16T11:45:35;99565.31;;;6.14;100.00
10310;BME280;5200;43.236;27.986;2023-03-16T11:48:26;99568.41;;;6.20;100.00
10310;BME280;5200;43.236;27.986;2023-03-16T11:51:04;99540.75;;;6.06;100.00
10310;BME280;5200;43.236;27.986;2023-03-16T11:53:45;99573.84;;;6.28;100.00
10310;BME280;5200;43.236;27.986;2023-03-16T11:56:24;99564.72;;;6.33;100.00
10310;BME280;5200;43.236;27.986;2023-03-16T11:59:03;99572.81;;;6.30;100.00
10310;BME280;5200;43.236;27.986;2023-03-16T12:01:49;99561.19;;;6.12;100.00
10310;BME280;5200;43.236;27.986;2023-03-16T12:04:33;99573.53;;;6.10;100.00
10310;BME280;5200;43.236;27.986;2023-03-16T12:07:16;99587.06;;;6.15;100.00
10310;BME280;5200;43.236;27.986;2023-03-16T12:10:07;99582.66;;;6.16;100.00
10310;BME280;5200;43.236;27.986;2023-03-16T12:12:48;99581.25;;;6.11;100.00
10310;BME280;5200;43.236;27.986;2023-03-16T12:15:29;99566.75;;;5.96;100.00
10310;BME280;5200;43.236;27.986;2023-03-16T12:18:02;99590.63;;;6.03;100.00
10310;BME280;5200;43.236;27.986;2023-03-16T12:20:39;99592.03;;;5.96;100.00
10310;BME280;5200;43.236;27.986;2023-03-16T12:23:10;99598.41;;;5.91;100.00
10310;BME280;5200;43.236;27.986;2023-03-16T12:25:41;99586.66;;;5.86;100.00
10310;BME280;5200;43.236;27.986;2023-03-16T12:28:19;99607.91;;;5.92;100.00
10310;BME280;5200;43.236;27.986;2023-03-16T12:30:54;99624.81;;;6.00;100.00
10310;BME280;5200;43.236;27.986;2023-03-16T12:33:35;99607.38;;;6.00;100.00
10310;BME280;5200;43.236;27.986;2023-03-16T12:36:21;99611.63;;;6.01;100.00
10310;BME280;5200;43.236;27.986;2023-03-16T12:38:51;99605.28;;;5.92;100.00
10310;BME280;5200;43.236;27.986;2023-03-16T12:41:29;99617.09;;;5.98;100.00
10310;BME280;5200;43.236;27.986;2023-03-16T12:44:08;99616.38;;;5.96;100.00
10310;BME280;5200;43.236;27.986;2023-03-16T12:46:43;99612.69;;;5.99;100.00
10310;BME280;5200;43.236;27.986;2023-03-16T12:49:14;99622.31;;;5.98;100.00
10310;BME280;5200;43.236;27.986;2023-03-16T12:51:43;99611.72;;;5.88;100.00
10310;BME280;5200;43.236;27.986;2023-03-16T12:54:20;99622.88;;;5.90;100.00
10310;BME280;5200;43.236;27.986;2023-03-16T12:56:49;99627.38;;;5.88;100.00
10310;BME280;5200;43.236;27.986;2023-03-16T12:59:19;99629.28;;;5.86;100.00
10310;BME280;5200;43.236;27.986;2023-03-16T13:01:49;99615.75;;;5.81;100.00
10310;BME280;5200;43.236;27.986;2023-03-16T13:04:21;99633.31;;;5.90;100.00
10310;BME280;5200;43.236;27.986;2023-03-16T13:07:00;99617.84;;;5.76;100.00
10310;BME280;5200;43.236;27.986;2023-03-16T13:09:29;99621.19;;;5.78;100.00
10310;BME280;5200;43.236;27.986;2023-03-16T13:11:57;99625.66;;;5.76;100.00
10310;BME280;5200;43.236;27.986;2023-03-16T13:14:34;99639.72;;;5.86;100.00